Time;durP1;ratioP1;P1;durP2;ratioP2;P2;SDS_P1;SDS_P2;PMS_P1;PMS_P2;Temp;Humidity;BMP_temperature;BMP_pressure;BME280_temperature;BME280_humidity;BME280_pressure;Samples;Min_cycle;Max_cycle;Signal;HPM_P1;HPM_P2
2021/06/25 00:01:18;;;;;;;2.20;2.00;;;;;;;27.39;62.50;69007.47;4990925;28;20217;-74
2021/06/25 00:03:46;;;;;;;2.70;1.97;;;;;;;27.37;62.64;69005.31;4988799;28;20256;-74
2021/06/25 00:06:13;;;;;;;3.40;2.20;;;;;;;27.32;64.78;68999.72;4986897;28;20205;-75
2021/06/25 00:08:40;;;;;;;3.87;1.80;;;;;;;27.23;69.23;68989.84;4989438;28;20680;-74
2021/06/25 00:11:09;;;;;;;2.07;1.87;;;;;;;27.21;64.67;68986.88;4990487;28;20304;-74
2021/06/25 00:13:36;;;;;;;2.10;1.90;;;;;;;27.18;64.90;68983.22;4990844;28;20213;-74
2021/06/25 00:16:04;;;;;;;1.70;1.60;;;;;;;27.15;65.51;68980.03;4988707;28;20215;-75
2021/06/25 00:18:32;;;;;;;2.53;1.90;;;;;;;27.09;66.39;68972.94;4990594;28;20232;-75
2021/06/25 00:20:59;;;;;;;4.07;2.20;;;;;;;27.08;64.50;68971.81;4990703;28;20229;-74
2021/06/25 00:23:26;;;;;;;2.30;1.80;;;;;;;27.04;65.92;68967.50;4989618;28;20213;-75
2021/06/25 00:25:54;;;;;;;2.87;1.70;;;;;;;26.99;65.37;68961.75;4989418;28;20288;-75
2021/06/25 00:28:23;;;;;;;2.83;1.80;;;;;;;26.97;66.15;68959.00;4990226;28;20204;-75
2021/06/25 00:30:50;;;;;;;3.63;1.83;;;;;;;26.94;65.64;68956.47;4989263;28;20228;-74
2021/06/25 00:33:18;;;;;;;2.23;1.60;;;;;;;26.93;64.59;68955.50;4989822;28;20291;-75
2021/06/25 00:35:45;;;;;;;2.00;1.70;;;;;;;26.90;67.44;68951.34;4993308;28;20235;-75
2021/06/25 00:38:13;;;;;;;1.97;1.77;;;;;;;26.88;65.83;68949.00;4994866;28;20320;-74
2021/06/25 00:40:40;;;;;;;3.37;1.70;;;;;;;26.85;67.90;68945.94;4994616;28;20307;-75
2021/06/25 00:43:07;;;;;;;2.77;1.80;;;;;;;26.83;66.72;68943.13;4994239;28;20272;-75
2021/06/25 00:45:36;;;;;;;1.80;1.63;;;;;;;26.82;65.04;68942.72;4993002;28;20296;-74
2021/06/25 00:48:04;;;;;;;1.70;1.50;;;;;;;26.79;65.88;68939.38;4994430;28;20302;-74
2021/06/25 00:50:36;;;;;;;2.40;1.70;;;;;;;26.80;64.29;68940.59;4993344;28;20359;-74
2021/06/25 00:53:05;;;;;;;4.07;1.80;;;;;;;26.79;66.80;68939.22;4987194;28;20610;-74
2021/06/25 00:55:41;;;;;;;1.40;1.30;;;;;;;26.77;66.05;68937.59;4990927;28;20735;-74
2021/06/25 00:58:10;;;;;;;4.20;1.70;;;;;;;26.75;66.16;68935.31;4992893;28;20271;-75
2021/06/25 01:00:38;;;;;;;1.47;1.37;;;;;;;26.73;66.89;68932.09;4993464;28;20234;-75
2021/06/25 01:03:06;;;;;;;1.47;1.30;;;;;;;26.72;69.26;68930.47;4993108;28;20295;-74
2021/06/25 01:05:34;;;;;;;1.63;1.33;;;;;;;26.69;69.20;68927.16;4992314;28;20289;-74
2021/06/25 01:08:01;;;;;;;1.30;1.20;;;;;;;26.62;71.20;68918.81;4992135;28;20209;-74
2021/06/25 01:10:29;;;;;;;1.67;1.50;;;;;;;26.58;73.19;68914.22;4990625;28;20678;-74
2021/06/25 01:12:56;;;;;;;2.00;1.60;;;;;;;26.59;68.01;68915.94;4994403;28;20291;-74
2021/06/25 01:15:23;;;;;;;1.63;1.30;;;;;;;26.60;67.61;68916.47;4992689;28;20312;-74
2021/06/25 01:17:52;;;;;;;1.40;1.30;;;;;;;26.54;71.39;68910.28;4994340;28;20777;-74
2021/06/25 01:20:25;;;;;;;4.10;1.30;;;;;;;26.53;68.49;68909.03;4993776;28;20284;-74
2021/06/25 01:22:55;;;;;;;1.70;1.60;;;;;;;26.47;74.72;68902.78;4993187;28;20302;-74
2021/06/25 01:25:24;;;;;;;1.40;1.30;;;;;;;26.42;73.74;68897.81;4988444;28;20218;-74
2021/06/25 01:27:53;;;;;;;1.27;1.07;;;;;;;26.41;69.73;68896.81;4989445;28;20298;-74
2021/06/25 01:30:23;;;;;;;1.07;1.00;;;;;;;26.43;67.98;68898.56;4992958;28;20230;-74
2021/06/25 01:32:51;;;;;;;1.20;1.10;;;;;;;26.41;68.55;68896.44;4993115;28;20303;-74
2021/06/25 01:35:19;;;;;;;2.33;1.30;;;;;;;26.42;67.64;68897.28;4993649;28;20239;-74
2021/06/25 01:37:47;;;;;;;1.90;1.10;;;;;;;26.44;67.12;68899.53;4993079;28;20208;-74
2021/06/25 01:40:18;;;;;;;2.33;1.30;;;;;;;26.44;68.40;68899.69;4987371;28;20760;-74
2021/06/25 01:42:47;;;;;;;2.57;1.27;;;;;;;26.47;66.09;68903.16;4993311;28;20293;-74
2021/06/25 01:45:16;;;;;;;2.10;1.00;;;;;;;26.51;65.39;68907.59;4990688;28;20292;-75
2021/06/25 01:47:45;;;;;;;2.70;1.30;;;;;;;26.51;67.55;68907.47;4992233;28;20323;-74
2021/06/25 01:50:15;;;;;;;1.33;1.00;;;;;;;26.51;67.82;68907.94;4991071;28;20697;-74
2021/06/25 01:52:46;;;;;;;2.53;1.17;;;;;;;26.49;67.42;68906.88;4992820;28;20254;-74
2021/06/25 01:55:15;;;;;;;1.20;1.10;;;;;;;26.45;70.88;68902.03;4992470;28;20291;-75
2021/06/25 01:57:43;;;;;;;1.67;1.07;;;;;;;26.44;69.06;68901.69;4991742;28;20235;-75
2021/06/25 02:00:12;;;;;;;1.47;1.10;;;;;;;26.42;68.86;68899.00;4992481;28;20311;-75
2021/06/25 02:02:40;;;;;;;1.03;0.93;;;;;;;26.41;68.42;68898.88;4993474;28;20633;-75
2021/06/25 02:05:09;;;;;;;1.47;1.20;;;;;;;26.44;66.11;68901.44;4991972;28;20309;-75
2021/06/25 02:07:37;;;;;;;0.60;0.60;;;;;;;26.47;65.25;68905.03;4992115;28;20288;-75
2021/06/25 02:10:07;;;;;;;1.77;1.00;;;;;;;26.49;65.74;68907.78;4992134;28;20230;-75
2021/06/25 02:12:36;;;;;;;1.07;0.90;;;;;;;26.48;66.70;68906.91;4993626;28;20295;-75
2021/06/25 02:15:06;;;;;;;0.93;0.70;;;;;;;26.50;66.17;68908.91;4993134;28;20333;-75
2021/06/25 02:17:34;;;;;;;1.00;0.80;;;;;;;26.49;68.75;68907.66;4991261;28;20699;-75
2021/06/25 02:20:01;;;;;;;0.77;0.77;;;;;;;26.50;68.61;68908.34;4988439;28;20260;-75
2021/06/25 02:22:29;;;;;;;1.10;0.90;;;;;;;26.47;71.56;68905.50;4991944;28;20303;-75
2021/06/25 02:24:56;;;;;;;1.10;0.90;;;;;;;26.48;69.70;68906.22;4990904;28;20243;-75
2021/06/25 02:27:23;;;;;;;1.63;1.00;;;;;;;26.41;75.02;68898.88;4992496;28;20790;-75
2021/06/25 02:29:52;;;;;;;1.33;1.00;;;;;;;26.39;72.82;68896.16;4991402;28;20759;-75
2021/06/25 02:32:20;;;;;;;1.67;1.10;;;;;;;26.38;71.79;68895.47;4992273;28;20235;-75
2021/06/25 02:34:47;;;;;;;1.80;0.83;;;;;;;26.38;71.21;68895.47;4991789;28;20557;-74
2021/06/25 02:37:14;;;;;;;1.13;1.00;;;;;;;26.37;71.42;68893.91;4992036;28;20286;-75
2021/06/25 02:39:42;;;;;;;1.23;0.90;;;;;;;26.38;69.75;68894.91;4991230;28;20232;-75
2021/06/25 02:42:09;;;;;;;1.33;1.00;;;;;;;26.38;70.30;68895.53;4991906;28;20294;-75
2021/06/25 02:44:37;;;;;;;1.63;1.00;;;;;;;26.38;71.10;68895.78;4989085;28;20291;-75
2021/06/25 02:47:06;;;;;;;2.57;1.40;;;;;;;26.39;70.04;68896.16;4991716;28;20210;-75
2021/06/25 02:49:33;;;;;;;3.93;1.00;;;;;;;26.39;70.20;68896.34;4991533;28;20235;-75
2021/06/25 02:52:01;;;;;;;4.67;1.00;;;;;;;26.39;70.46;68896.78;4992489;28;20204;-75
2021/06/25 02:54:28;;;;;;;1.53;1.00;;;;;;;26.40;69.91;68897.38;4991108;28;20232;-75
2021/06/25 02:56:55;;;;;;;2.50;1.07;;;;;;;26.40;69.43;68898.06;4990716;28;20270;-75
2021/06/25 02:59:23;;;;;;;1.50;1.20;;;;;;;26.40;70.40;68896.88;4991625;28;20255;-75
2021/06/25 03:01:50;;;;;;;1.33;1.20;;;;;;;26.39;69.93;68896.75;4991116;28;20209;-75
2021/06/25 03:04:19;;;;;;;1.83;1.13;;;;;;;26.34;75.51;68890.47;4990658;28;20294;-75
2021/06/25 03:06:46;;;;;;;1.20;1.10;;;;;;;26.26;77.30;68881.97;4992111;28;20728;-75
2021/06/25 03:09:14;;;;;;;1.40;1.30;;;;;;;26.20;76.98;68875.13;4990260;28;20314;-75
2021/06/25 03:11:41;;;;;;;2.77;1.30;;;;;;;26.18;74.83;68872.38;4991224;28;20298;-75
2021/06/25 03:14:08;;;;;;;1.77;1.63;;;;;;;26.20;72.65;68874.72;4990794;28;20212;-75
2021/06/25 03:16:36;;;;;;;2.27;1.20;;;;;;;26.17;82.14;68872.16;4991064;28;20584;-75
2021/06/25 03:19:03;;;;;;;4.80;1.50;;;;;;;26.17;78.58;68871.63;4992288;28;20305;-75
2021/06/25 03:21:32;;;;;;;1.60;1.50;;;;;;;26.20;75.71;68875.63;4990777;28;20302;-75
2021/06/25 03:23:59;;;;;;;3.70;1.70;;;;;;;26.24;73.83;68879.50;4989658;28;20236;-75
2021/06/25 03:26:27;;;;;;;2.67;1.30;;;;;;;26.29;70.99;68885.81;4992287;28;20295;-75
2021/06/25 03:28:54;;;;;;;1.47;1.37;;;;;;;26.32;70.43;68888.34;4990390;28;20240;-75
2021/06/25 03:31:22;;;;;;;1.60;1.50;;;;;;;26.33;71.03;68890.25;4992194;28;20300;-75
2021/06/25 03:33:49;;;;;;;1.90;1.30;;;;;;;26.36;71.48;68894.13;4989602;28;20625;-75
2021/06/25 03:36:17;;;;;;;2.00;1.20;;;;;;;26.38;69.52;68896.00;4991908;28;20204;-75
2021/06/25 03:38:45;;;;;;;2.73;1.33;;;;;;;26.39;69.99;68897.59;4990483;28;20228;-75
2021/06/25 03:41:13;;;;;;;2.57;1.50;;;;;;;26.41;70.73;68899.72;4991207;28;20311;-75
2021/06/25 03:43:40;;;;;;;1.90;1.33;;;;;;;26.45;68.95;68903.13;4989541;28;20231;-75
2021/06/25 03:46:07;;;;;;;1.90;1.40;;;;;;;26.43;70.62;68901.41;4992064;28;20235;-75
2021/06/25 03:48:35;;;;;;;2.80;1.57;;;;;;;26.42;70.42;68900.13;4989208;28;20204;-75
2021/06/25 03:51:02;;;;;;;3.17;1.20;;;;;;;26.39;72.14;68896.66;4991742;28;20307;-75
2021/06/25 03:53:29;;;;;;;1.30;1.20;;;;;;;26.33;75.75;68890.19;4990659;28;20319;-75
2021/06/25 03:56:10;;;;;;;1.20;1.10;;;;;;;26.33;71.16;68889.31;4991555;28;20372;-75
2021/06/25 03:58:39;;;;;;;4.90;1.40;;;;;;;26.28;74.80;68884.38;4989847;28;20768;-75
2021/06/25 04:01:06;;;;;;;1.47;1.20;;;;;;;26.28;71.03;68884.53;4990146;28;20236;-75
2021/06/25 04:03:34;;;;;;;1.50;1.20;;;;;;;26.24;75.10;68880.69;4988842;28;20214;-75
2021/06/25 04:06:02;;;;;;;1.60;1.30;;;;;;;26.21;73.63;68876.22;4989037;28;20892;-75
2021/06/25 04:08:31;;;;;;;2.87;1.27;;;;;;;26.17;75.32;68872.13;4990663;28;20208;-75
2021/06/25 04:11:04;;;;;;;1.30;1.20;;;;;;;26.17;73.36;68873.19;4995461;28;20232;-75
2021/06/25 04:13:32;;;;;;;1.63;1.23;;;;;;;26.18;71.47;68873.91;4994560;28;20217;-75
2021/06/25 04:16:00;;;;;;;1.57;1.30;;;;;;;26.20;71.30;68876.94;4994990;28;20308;-75
2021/06/25 04:18:27;;;;;;;1.30;1.20;;;;;;;26.23;69.38;68879.81;4992740;28;20295;-75
2021/06/25 04:20:56;;;;;;;1.50;1.40;;;;;;;26.26;68.79;68883.41;4994367;28;20282;-75
2021/06/25 04:23:23;;;;;;;1.63;1.10;;;;;;;26.29;70.68;68886.72;4994843;28;20287;-75
2021/06/25 04:25:51;;;;;;;1.33;1.23;;;;;;;26.31;68.85;68889.03;4993639;28;20723;-75
2021/06/25 04:28:20;;;;;;;1.60;1.27;;;;;;;26.34;69.79;68892.44;4995700;28;20290;-75
2021/06/25 04:30:48;;;;;;;1.00;0.90;;;;;;;26.35;69.02;68894.06;4992761;28;20243;-75
2021/06/25 04:33:15;;;;;;;1.20;0.97;;;;;;;26.37;72.08;68895.28;4993352;28;20307;-75
2021/06/25 04:35:44;;;;;;;1.80;1.27;;;;;;;26.38;69.83;68897.63;4993202;28;20295;-75
2021/06/25 04:38:11;;;;;;;1.20;1.10;;;;;;;26.41;68.95;68900.91;4995605;28;20212;-75
2021/06/25 04:40:40;;;;;;;2.00;1.10;;;;;;;26.43;69.92;68902.69;4993101;28;20244;-75
2021/06/25 04:43:08;;;;;;;1.10;1.00;;;;;;;26.44;70.30;68904.41;4988569;28;20678;-75
2021/06/25 04:45:37;;;;;;;1.30;1.20;;;;;;;26.45;72.22;68906.00;4994004;28;20214;-75
2021/06/25 04:48:06;;;;;;;1.47;1.10;;;;;;;26.48;70.27;68908.41;4990575;28;20295;-75
2021/06/25 04:50:34;;;;;;;2.97;1.20;;;;;;;26.51;69.71;68912.78;4993333;28;20280;-75
2021/06/25 04:53:01;;;;;;;3.73;1.00;;;;;;;26.53;68.70;68914.63;4994648;28;20299;-75
2021/06/25 04:55:29;;;;;;;1.37;1.20;;;;;;;26.55;68.60;68917.00;4993753;28;20312;-72
2021/06/25 04:57:56;;;;;;;2.03;1.43;;;;;;;26.57;69.61;68919.31;4994217;28;20300;-72
2021/06/25 05:00:25;;;;;;;1.57;1.30;;;;;;;26.57;71.35;68918.84;4993084;28;20323;-72
2021/06/25 05:02:54;;;;;;;1.50;1.30;;;;;;;26.59;67.19;68921.72;4994079;28;20292;-72
2021/06/25 05:05:21;;;;;;;2.23;1.60;;;;;;;26.57;74.14;68919.44;4992315;28;20730;-72
2021/06/25 05:07:49;;;;;;;2.97;1.43;;;;;;;26.55;73.14;68917.25;4993569;28;20570;-72
2021/06/25 05:10:16;;;;;;;3.27;1.50;;;;;;;26.52;72.80;68914.16;4992101;28;20323;-71
2021/06/25 05:12:43;;;;;;;1.53;1.20;;;;;;;26.52;73.14;68913.81;4994081;28;20220;-71
2021/06/25 05:15:12;;;;;;;3.77;1.30;;;;;;;26.55;68.69;68917.09;4994365;28;20296;-71
2021/06/25 05:17:39;;;;;;;2.23;1.20;;;;;;;26.60;66.71;68922.25;4992962;28;20298;-71
2021/06/25 05:20:09;;;;;;;4.77;1.30;;;;;;;26.62;67.69;68925.00;4993090;28;20267;-71
2021/06/25 05:22:37;;;;;;;4.67;1.83;;;;;;;26.67;67.53;68930.00;4993090;28;20519;-71
2021/06/25 05:25:05;;;;;;;1.80;1.43;;;;;;;26.67;69.57;68930.69;4992946;28;20297;-72
2021/06/25 05:27:32;;;;;;;2.40;1.20;;;;;;;26.72;66.83;68936.09;4994686;28;20240;-72
2021/06/25 05:30:00;;;;;;;1.37;1.20;;;;;;;26.77;66.40;68942.03;4994468;28;20313;-72
2021/06/25 05:32:27;;;;;;;2.03;1.30;;;;;;;26.76;70.56;68940.50;4992682;28;20207;-72
2021/06/25 05:34:54;;;;;;;2.23;1.20;;;;;;;26.71;73.31;68935.63;4993301;28;20293;-72
2021/06/25 05:37:23;;;;;;;2.60;1.50;;;;;;;26.67;77.06;68930.66;4993703;28;20588;-72
2021/06/25 05:39:50;;;;;;;1.70;1.27;;;;;;;26.68;70.56;68932.09;4985318;28;20327;-71
2021/06/25 05:42:18;;;;;;;2.30;1.00;;;;;;;26.63;77.37;68926.53;4990233;28;20212;-71
2021/06/25 05:44:45;;;;;;;2.73;1.50;;;;;;;26.58;77.46;68921.88;4993582;28;20255;-73
2021/06/25 05:47:13;;;;;;;2.17;1.20;;;;;;;26.53;78.65;68916.28;4993215;28;20204;-72
2021/06/25 05:49:40;;;;;;;2.63;1.27;;;;;;;26.50;74.08;68913.13;4993435;28;20232;-72
2021/06/25 05:52:08;;;;;;;1.67;1.30;;;;;;;26.48;75.05;68910.13;4991480;28;20200;-70
2021/06/25 05:54:37;;;;;;;1.50;1.23;;;;;;;26.48;72.53;68910.41;4991409;28;20335;-72
2021/06/25 05:57:05;;;;;;;2.53;1.10;;;;;;;26.48;72.39;68910.75;4992193;28;20237;-70
2021/06/25 05:59:33;;;;;;;1.70;1.10;;;;;;;26.47;73.65;68909.78;4993401;28;20276;-71
2021/06/25 06:02:01;;;;;;;2.37;1.30;;;;;;;26.46;71.98;68908.47;4993842;28;20430;-72
2021/06/25 06:04:28;;;;;;;3.00;1.07;;;;;;;26.44;73.48;68906.31;4992230;28;20295;-75
2021/06/25 06:06:55;;;;;;;2.90;1.30;;;;;;;26.44;73.84;68905.97;4991442;28;20246;-71
2021/06/25 06:09:23;;;;;;;1.90;1.20;;;;;;;26.42;73.98;68904.59;4990453;28;20331;-69
2021/06/25 06:11:52;;;;;;;1.27;1.10;;;;;;;26.42;72.66;68904.75;4986361;28;20220;-69
2021/06/25 06:14:20;;;;;;;1.30;0.83;;;;;;;26.36;75.66;68897.69;4991056;28;20212;-69
2021/06/25 06:16:47;;;;;;;1.93;1.10;;;;;;;26.34;74.43;68895.00;4991384;28;20209;-69
2021/06/25 06:19:16;;;;;;;1.17;1.07;;;;;;;26.31;74.79;68892.13;4992180;28;20272;-69
2021/06/25 06:32:50;;;;;;;1.30;1.03;;;;;;;26.40;75.69;68901.97;4992286;28;20220;-69
2021/06/25 06:35:17;;;;;;;0.87;0.87;;;;;;;26.38;74.23;68900.22;4991344;28;20236;-73
2021/06/25 06:37:49;;;;;;;3.50;1.30;;;;;;;26.43;70.00;68905.97;4990316;28;20298;-71
2021/06/25 06:40:19;;;;;;;1.77;1.30;;;;;;;26.42;73.54;68905.09;4991427;28;20240;-69
2021/06/25 06:42:48;;;;;;;1.67;1.10;;;;;;;26.40;75.63;68902.53;5000349;28;20689;-69
2021/06/25 06:45:17;;;;;;;2.90;1.17;;;;;;;26.36;74.80;68897.91;4991116;28;20292;-71
2021/06/25 06:47:45;;;;;;;1.43;1.23;;;;;;;26.33;76.94;68894.66;4991745;28;20600;-68
2021/06/25 06:50:13;;;;;;;1.27;1.10;;;;;;;26.34;76.55;68895.69;4992486;28;20222;-73
2021/06/25 06:52:44;;;;;;;1.50;1.40;;;;;;;26.32;76.99;68893.25;4989938;28;20208;-70
2021/06/25 06:55:13;;;;;;;2.00;1.47;;;;;;;26.33;74.66;68894.81;4991124;28;20212;-71
2021/06/25 06:57:40;;;;;;;1.90;1.40;;;;;;;26.33;74.91;68895.16;4992291;28;20221;-69
2021/06/25 07:00:10;;;;;;;2.17;1.40;;;;;;;26.29;79.85;68890.56;4993307;28;20267;-69
2021/06/25 07:02:38;;;;;;;2.27;1.40;;;;;;;26.33;75.38;68894.69;4991864;28;20212;-69
2021/06/25 07:05:07;;;;;;;2.70;1.20;;;;;;;26.36;74.14;68898.50;4990072;28;20304;-69
2021/06/25 07:07:34;;;;;;;3.03;1.23;;;;;;;26.37;75.62;68900.53;4990690;28;20290;-69
2021/06/25 07:10:02;;;;;;;3.83;1.10;;;;;;;26.42;72.40;68905.09;4988964;28;20315;-69
2021/06/25 07:12:29;;;;;;;1.93;1.17;;;;;;;26.50;71.72;68914.28;4991839;28;20236;-68
2021/06/25 07:14:56;;;;;;;1.77;1.30;;;;;;;26.48;71.29;68912.44;4996043;28;20209;-74
2021/06/25 07:17:25;;;;;;;1.40;1.30;;;;;;;26.45;73.91;68909.75;4992143;28;20211;-73
2021/06/25 07:19:53;;;;;;;2.87;1.67;;;;;;;26.45;73.71;68909.16;4991893;28;20332;-74
2021/06/25 07:22:20;;;;;;;2.70;1.33;;;;;;;26.48;70.92;68913.25;4991782;28;20232;-74
2021/06/25 07:24:47;;;;;;;1.93;1.67;;;;;;;26.49;70.87;68914.72;4988674;28;20207;-75
2021/06/25 07:27:15;;;;;;;3.13;2.00;;;;;;;26.51;71.88;68917.47;4989922;28;20202;-74
2021/06/25 07:29:43;;;;;;;3.33;2.03;;;;;;;26.53;72.44;68919.09;4991650;28;20305;-73
2021/06/25 07:32:10;;;;;;;2.70;1.90;;;;;;;26.56;72.06;68922.97;4992733;28;20211;-74
2021/06/25 07:34:40;;;;;;;4.00;2.30;;;;;;;26.58;72.59;68924.41;4991445;28;20219;-74
2021/06/25 07:37:08;;;;;;;4.20;2.20;;;;;;;26.50;78.92;68916.00;4997692;28;20261;-74
2021/06/25 07:39:36;;;;;;;2.70;2.33;;;;;;;26.43;80.83;68908.72;4996480;28;20252;-74
2021/06/25 07:42:03;;;;;;;3.90;2.87;;;;;;;26.43;74.69;68908.44;4997630;28;20273;-75
2021/06/25 07:44:31;;;;;;;3.60;2.50;;;;;;;26.34;83.12;68898.59;4993830;28;20300;-74
2021/06/25 07:46:58;;;;;;;2.73;2.43;;;;;;;26.29;80.64;68893.06;4990918;28;20238;-75
2021/06/25 07:49:25;;;;;;;3.27;2.60;;;;;;;26.29;76.04;68893.31;4991750;28;20257;-73
2021/06/25 07:51:54;;;;;;;3.57;2.67;;;;;;;26.27;76.38;68891.63;4990757;28;21164;-74
2021/06/25 07:54:22;;;;;;;3.10;2.33;;;;;;;26.20;80.71;68883.69;4988775;28;20744;-74
2021/06/25 07:56:49;;;;;;;4.13;2.67;;;;;;;26.15;81.09;68877.63;4991119;28;20296;-74
2021/06/25 07:59:16;;;;;;;3.20;2.90;;;;;;;26.11;78.95;68873.38;4990915;28;20233;-74
2021/06/25 08:01:44;;;;;;;4.07;3.07;;;;;;;26.12;77.06;68874.34;4991538;28;20266;-74
2021/06/25 08:04:11;;;;;;;4.17;2.93;;;;;;;26.11;76.24;68873.63;4988937;28;20299;-73
2021/06/25 08:06:38;;;;;;;3.37;2.70;;;;;;;26.12;76.73;68874.75;4991227;28;20303;-74
2021/06/25 08:09:07;;;;;;;2.93;2.57;;;;;;;26.15;76.54;68877.84;4989460;28;20237;-74
2021/06/25 08:11:35;;;;;;;4.83;2.83;;;;;;;26.17;74.06;68879.88;4988736;28;20755;-72
2021/06/25 08:14:02;;;;;;;2.77;2.40;;;;;;;26.22;72.52;68885.16;4979196;28;21214;-72
2021/06/25 08:16:30;;;;;;;2.47;2.20;;;;;;;26.27;70.59;68891.28;4976422;28;20342;-73
2021/06/25 08:18:58;;;;;;;3.37;2.60;;;;;;;26.33;73.51;68896.94;4989435;28;20299;-73
2021/06/25 08:21:25;;;;;;;3.57;2.60;;;;;;;26.41;66.28;68907.00;4991706;28;20235;-75
2021/06/25 08:23:53;;;;;;;2.90;2.40;;;;;;;26.50;67.65;68916.59;4989676;28;20354;-75
2021/06/25 08:26:22;;;;;;;3.70;2.23;;;;;;;26.56;72.13;68922.94;4990269;28;20258;-74
2021/06/25 08:28:49;;;;;;;2.40;2.10;;;;;;;26.61;70.28;68928.66;4990815;28;20250;-74
2021/06/25 08:31:17;;;;;;;2.37;2.00;;;;;;;26.62;71.29;68930.56;4990470;28;20201;-74
2021/06/25 08:33:45;;;;;;;1.77;1.67;;;;;;;26.67;69.71;68935.84;4989523;28;20216;-74
2021/06/25 08:36:12;;;;;;;2.47;2.00;;;;;;;26.72;69.33;68941.47;4989438;28;20299;-74
2021/06/25 08:38:39;;;;;;;2.33;2.00;;;;;;;26.74;70.60;68944.38;4989612;28;20237;-74
2021/06/25 08:41:07;;;;;;;2.63;1.90;;;;;;;26.76;71.48;68946.25;4990716;28;20230;-74
2021/06/25 08:43:35;;;;;;;3.20;2.10;;;;;;;26.79;71.42;68949.66;4990521;28;20589;-76
2021/06/25 08:46:03;;;;;;;2.50;2.00;;;;;;;26.86;67.82;68957.28;4989037;28;20684;-75
2021/06/25 08:48:30;;;;;;;2.63;2.07;;;;;;;26.91;67.46;68964.03;4990556;28;20651;-75
2021/06/25 08:50:59;;;;;;;2.43;1.73;;;;;;;26.91;72.57;68963.31;4978625;28;20342;-75
2021/06/25 08:53:26;;;;;;;2.57;1.90;;;;;;;26.96;67.82;68969.44;4982492;28;20216;-75
2021/06/25 08:55:54;;;;;;;2.23;1.80;;;;;;;26.94;72.49;68966.88;4992368;28;20299;-74
2021/06/25 08:58:23;;;;;;;1.97;1.77;;;;;;;26.92;73.78;68964.88;4993440;28;20338;-75
2021/06/25 09:00:53;;;;;;;4.03;2.00;;;;;;;26.92;70.92;68964.88;4993208;28;20227;-75
2021/06/25 09:03:22;;;;;;;2.50;2.30;;;;;;;26.85;73.59;68957.19;4994345;28;20273;-72
2021/06/25 09:05:50;;;;;;;2.70;2.00;;;;;;;26.86;71.76;68957.72;4992129;28;20259;-74
2021/06/25 09:08:28;;;;;;;2.50;1.80;;;;;;;26.86;72.57;68957.38;4994211;28;20221;-73
2021/06/25 09:10:58;;;;;;;4.20;2.50;;;;;;;26.85;71.50;68955.97;4992281;28;20226;-72
2021/06/25 09:13:33;;;;;;;3.07;2.57;;;;;;;26.88;70.18;68959.06;4993491;28;20200;-73
2021/06/25 09:16:02;;;;;;;2.20;2.00;;;;;;;26.85;72.31;68955.78;4991700;28;20204;-74
2021/06/25 09:18:29;;;;;;;3.10;2.80;;;;;;;26.89;69.76;68960.66;4994046;28;20220;-73
2021/06/25 09:20:57;;;;;;;3.57;2.67;;;;;;;26.85;80.24;68956.25;4994000;28;20232;-74
2021/06/25 09:23:27;;;;;;;3.20;2.70;;;;;;;26.79;77.38;68949.63;4994118;28;20210;-72
2021/06/25 09:25:59;;;;;;;2.93;2.63;;;;;;;26.74;78.30;68943.47;4984926;28;20214;-73
2021/06/25 09:28:27;;;;;;;3.73;3.00;;;;;;;26.76;73.41;68946.06;4992661;28;20572;-75
2021/06/25 09:30:55;;;;;;;4.30;2.90;;;;;;;26.78;72.64;68948.19;4992806;28;20226;-76
2021/06/25 09:33:24;;;;;;;3.30;2.87;;;;;;;26.78;70.83;68948.34;4989362;28;20219;-74
2021/06/25 09:35:52;;;;;;;3.30;3.00;;;;;;;26.79;70.33;68949.97;4992929;28;20209;-73
2021/06/25 09:38:37;;;;;;;4.03;2.73;;;;;;;26.81;69.25;68951.75;4987761;28;20221;-73
2021/06/25 09:41:17;;;;;;;3.67;2.83;;;;;;;26.85;68.85;68955.84;4993908;28;20585;-77
2021/06/25 09:43:54;;;;;;;3.70;2.90;;;;;;;26.82;72.97;68951.81;4992279;28;20960;-72
2021/06/25 09:46:26;;;;;;;3.77;2.90;;;;;;;26.77;72.60;68946.53;4993067;28;20210;-72
2021/06/25 09:48:57;;;;;;;4.43;3.10;;;;;;;26.81;68.02;68951.88;4993980;28;20211;-73
2021/06/25 09:51:25;;;;;;;3.63;3.20;;;;;;;26.89;65.79;68959.72;4992759;28;20217;-75
2021/06/25 09:54:13;;;;;;;5.70;3.30;;;;;;;26.90;68.65;68960.84;4986719;28;20218;-75
2021/06/25 09:56:46;;;;;;;5.60;4.30;;;;;;;26.92;69.76;68964.28;4990732;28;20203;-75
2021/06/25 09:59:45;;;;;;;5.10;3.97;;;;;;;26.96;68.04;68968.03;4990695;28;20292;-73
2021/06/25 10:02:36;;;;;;;4.50;4.00;;;;;;;26.94;71.20;68965.84;4990542;28;20653;-77
2021/06/25 10:05:13;;;;;;;4.17;3.77;;;;;;;26.99;68.47;68971.13;4980526;28;20212;-76
2021/06/25 10:07:41;;;;;;;4.77;4.03;;;;;;;26.97;70.81;68969.47;4995984;28;20211;-76
2021/06/25 10:10:10;;;;;;;6.13;4.53;;;;;;;26.94;71.50;68965.38;4994148;28;20237;-77
2021/06/25 10:12:40;;;;;;;6.90;5.03;;;;;;;26.95;70.74;68967.47;4990586;28;20214;-75
2021/06/25 10:15:08;;;;;;;5.77;4.73;;;;;;;27.00;69.70;68972.34;4993737;28;20210;-77
2021/06/25 10:17:36;;;;;;;7.87;5.37;;;;;;;27.08;67.30;68981.19;4993762;28;20202;-80
2021/06/25 10:20:10;;;;;;;6.20;4.83;;;;;;;27.15;64.75;68989.25;4994869;28;20759;-77
2021/06/25 10:22:38;;;;;;;6.60;5.03;;;;;;;27.13;69.65;68987.34;4994615;28;20238;-78
2021/06/25 10:25:08;;;;;;;6.50;4.97;;;;;;;27.17;66.68;68991.22;4991392;28;20656;-78
2021/06/25 10:27:36;;;;;;;5.87;5.10;;;;;;;27.12;70.87;68986.31;4997374;28;20213;-79
2021/06/25 10:30:05;;;;;;;6.00;4.43;;;;;;;27.14;68.48;68988.63;5000639;28;20235;-80
2021/06/25 10:32:33;;;;;;;6.03;4.97;;;;;;;27.26;61.95;69001.72;5000813;28;20238;-81
2021/06/25 10:35:02;;;;;;;5.73;4.50;;;;;;;27.31;62.59;69007.84;4997065;28;20208;-81
2021/06/25 10:37:30;;;;;;;4.77;4.27;;;;;;;27.36;64.24;69013.47;5002146;28;20254;-83
2021/06/25 10:39:58;;;;;;;6.17;4.30;;;;;;;27.39;65.13;69016.78;5001898;28;20239;-82
2021/06/25 10:42:41;;;;;;;6.80;4.97;;;;;;;27.50;59.25;69029.47;5003859;28;20231;-82
2021/06/25 10:45:12;;;;;;;7.37;5.90;;;;;;;27.42;65.72;69020.31;5001820;28;20196;-82
2021/06/25 10:47:52;;;;;;;5.63;4.77;;;;;;;27.47;62.19;69026.66;5003343;28;20291;-80
2021/06/25 10:50:24;;;;;;;8.57;5.30;;;;;;;27.44;65.24;69023.25;4996405;28;20227;-80
2021/06/25 10:53:15;;;;;;;7.37;5.10;;;;;;;27.42;63.61;69022.19;4997192;28;20673;-82
2021/06/25 10:55:46;;;;;;;7.77;5.67;;;;;;;27.39;66.95;69018.22;4996458;28;20212;-83
2021/06/25 10:58:22;;;;;;;8.67;6.00;;;;;;;27.43;61.36;69022.78;4996684;28;20192;-78
2021/06/25 11:00:56;;;;;;;8.97;5.80;;;;;;;27.47;62.31;69028.03;4995787;28;20627;-82
2021/06/25 11:03:44;;;;;;;8.23;6.03;;;;;;;27.50;61.50;69031.75;4998355;28;20266;-81
2021/06/25 11:06:54;;;;;;;7.90;5.77;;;;;;;27.55;61.57;69036.41;4995473;28;20696;-83
2021/06/25 11:09:23;;;;;;;9.00;6.07;;;;;;;27.56;62.17;69037.97;4995812;28;20240;-81
2021/06/25 11:12:18;;;;;;;9.30;6.37;;;;;;;27.61;58.36;69043.41;4990778;28;20291;-82
2021/06/25 11:14:46;;;;;;;7.70;6.33;;;;;;;27.57;62.87;69038.59;4990514;28;20222;-79
2021/06/25 11:17:27;;;;;;;8.43;6.03;;;;;;;27.53;65.45;69033.94;4987116;28;20204;-78
2021/06/25 11:20:15;;;;;;;8.07;6.30;;;;;;;27.60;58.46;69042.09;4982493;28;20548;-79
2021/06/25 11:22:42;;;;;;;8.33;6.63;;;;;;;27.66;58.22;69048.91;4992146;28;20227;-79
2021/06/25 11:25:15;;;;;;;10.17;6.63;;;;;;;27.64;61.18;69046.88;4990880;28;20204;-77
2021/06/25 11:28:25;;;;;;;9.57;6.83;;;;;;;27.57;67.77;69038.88;4989683;28;20838;-74
2021/06/25 11:31:18;;;;;;;10.30;7.47;;;;;;;27.59;62.80;69040.78;4979803;28;20591;-74
2021/06/25 11:33:52;;;;;;;11.27;7.97;;;;;;;27.62;61.40;69044.88;4989960;28;20215;-76
2021/06/25 11:36:24;;;;;;;12.10;8.30;;;;;;;27.68;54.88;69050.97;4990077;28;20239;-74
2021/06/25 11:39:11;;;;;;;10.33;7.83;;;;;;;27.72;57.14;69055.69;4990737;28;20743;-75
2021/06/25 11:41:42;;;;;;;11.60;8.40;;;;;;;27.83;54.35;69067.63;4984592;28;20231;-73
2021/06/25 11:44:13;;;;;;;12.53;8.70;;;;;;;27.93;53.38;69078.66;4986962;28;20223;-76
2021/06/25 11:46:42;;;;;;;9.73;6.70;;;;;;;28.05;56.30;69093.41;4988981;28;20215;-73
2021/06/25 11:49:10;;;;;;;12.03;7.57;;;;;;;28.21;51.39;69111.00;4987432;28;20232;-73
2021/06/25 11:51:40;;;;;;;11.03;8.23;;;;;;;28.35;50.12;69126.66;4990152;28;20204;-73
2021/06/25 11:54:10;;;;;;;11.23;7.40;;;;;;;28.50;48.87;69144.66;4990456;28;20201;-71
2021/06/25 11:56:43;;;;;;;10.63;6.97;;;;;;;28.60;49.98;69155.28;4989713;28;20218;-71